John M. Rivers (jr) — WDB8997 — position and weather

sailwx.info

Track history (hours):
 
Tides and Currents Weather Stations Pressure Air Temp Water Temp Dewpoint Dewpoint Depression Visibility Wind Speed Wind Dir Waves Ship Positions

John M. Rivers (jr)

Owner: Ingram Barge Company LLC, Nashville, TN. More information available from US FCC via Universal Licensing System and Coast Guard Vessel Documentation Center.

Last reported at 2017-Sep-17 22:06 UTC. Time now 2017-Dec-17 10:15 UTC.
Position N 40°42' W 091°07'.
Warning: this ship's position is months out of date.

Length 48 m; draft 25.5 m.

Type: Towing. MMSI: 366967620.

Date/timePositionNaut miles runAvg speedWind from/ knotsBaromVisibWave heightAir tempDewpointWater temp
2017-Sep-17 22:06N 40°42' W 091°07'1 6.3
2017-Sep-17 21:58N 40°43' W 091°07'3 5.9
2017-Sep-17 21:26N 40°46' W 091°06'3 6.3
2017-Sep-17 21:00N 40°48' W 091°06'3 6.3
2017-Sep-17 20:30N 40°51' W 091°03'2 5.0
2017-Sep-17 20:00N 40°53' W 091°01'0 0.3
2017-Sep-17 19:30N 40°53' W 091°01'0 0.0
2017-Sep-17 19:00N 40°53' W 091°01'0 0.6
2017-Sep-17 18:31N 40°53' W 091°01'0 0.2
2017-Sep-17 18:00N 40°53' W 091°01'1 1.4
2017-Sep-17 17:31N 40°54' W 091°01'3 5.5
2017-Sep-17 17:00N 40°56' W 090°58'3 6.3
2017-Sep-17 16:31N 40°59' W 090°58'3 6.4
2017-Sep-17 16:00N 41°02' W 090°57'3 6.4
2017-Sep-17 15:30N 41°05' W 090°57'9 3.0
2017-Sep-17 12:29N 41°12' W 091°04'  
2017-Sep-10 16:03N 41°07' W 090°57'1 3.6
2017-Sep-10 15:53N 41°06' W 090°57'1 3.5
2017-Sep-10 15:29N 41°05' W 090°57'3 3.7
2017-Sep-10 14:45N 41°02' W 090°56'3 3.5
2017-Sep-10 14:01N 40°60' W 090°57'2 3.5
2017-Sep-10 13:30N 40°58' W 090°57'0 0.7
2017-Sep-10 13:01N 40°58' W 090°57'1 1.8
2017-Sep-10 12:31N 40°57' W 090°57'2 3.8
2017-Sep-10 12:00N 40°55' W 090°59'2 3.7
2017-Sep-10 11:30N 40°54' W 091°01'1 2.5
2017-Sep-10 11:00N 40°53' W 091°01'0 0.3
2017-Sep-10 10:30N 40°53' W 091°02'0 0.0
2017-Sep-10 10:01N 40°53' W 091°02'0 0.5
2017-Sep-10 09:31N 40°53' W 091°02'1 2.9
2017-Sep-10 09:01N 40°52' W 091°03'0 0.0
2017-Sep-10 08:30N 40°52' W 091°03'0 0.0
2017-Sep-10 08:00N 40°52' W 091°03'0 0.0
2017-Sep-10 07:31N 40°52' W 091°03'0 0.2
2017-Sep-10 07:00N 40°51' W 091°03'1 2.3
2017-Sep-10 06:30N 40°50' W 091°04'2 3.6
2017-Sep-10 06:00N 40°49' W 091°06'2 3.9
2017-Sep-10 05:30N 40°47' W 091°06'5 0.2
2017-Sep-09 00:35N 40°42' W 091°07'1 5.8
2017-Sep-09 00:24N 40°43' W 091°07'2 6.2
2017-Sep-08 23:59N 40°46' W 091°06'3 6.8
2017-Sep-08 23:30N 40°49' W 091°06'3 6.2
2017-Sep-08 23:00N 40°51' W 091°03'2 4.3
2017-Sep-08 22:30N 40°53' W 091°01'0 0.2
2017-Sep-08 21:59N 40°53' W 091°01'0 0.3
2017-Sep-08 21:31N 40°53' W 091°01'0 0.3
2017-Sep-08 21:00N 40°53' W 091°01'0 0.1
2017-Sep-08 20:31N 40°53' W 091°01'1 1.9
2017-Sep-08 20:00N 40°54' W 091°00'3 5.6
2017-Sep-08 19:30N 40°56' W 090°58'2 3.4
2017-Sep-08 19:00N 40°58' W 090°57'4 6.0
2017-Sep-08 18:20N 41°02' W 090°57'3 6.5
2017-Sep-08 17:51N 41°05' W 090°57'10 2.2
2017-Sep-08 13:34N 41°13' W 091°04'0 0.0
2017-Sep-08 13:29N 41°13' W 091°04'  
Track history (hours):
 
Tides and Currents Weather Stations Pressure Air Temp Water Temp Dewpoint Dewpoint Depression Visibility Wind Speed Wind Dir Waves Ship Positions

John M. Rivers (jr)

Owner: Ingram Barge Company LLC, Nashville, TN. More information available from US FCC via Universal Licensing System and Coast Guard Vessel Documentation Center.

Last reported at 2017-Sep-17 22:06 UTC. Time now 2017-Dec-17 10:15 UTC.
Position N 40°42' W 091°07'.
Warning: this ship's position is months out of date.

Length 48 m; draft 25.5 m.

Type: Towing. MMSI: 366967620.

Date/timePositionNaut miles runAvg speedWind from/ knotsBaromVisibWave heightAir tempDewpointWater temp
2017-Sep-17 22:06N 40°42' W 091°07'1 6.3
2017-Sep-17 21:58N 40°43' W 091°07'3 5.9
2017-Sep-17 21:26N 40°46' W 091°06'3 6.3
2017-Sep-17 21:00N 40°48' W 091°06'3 6.3
2017-Sep-17 20:30N 40°51' W 091°03'2 5.0
2017-Sep-17 20:00N 40°53' W 091°01'0 0.3
2017-Sep-17 19:30N 40°53' W 091°01'0 0.0
2017-Sep-17 19:00N 40°53' W 091°01'0 0.6
2017-Sep-17 18:31N 40°53' W 091°01'0 0.2
2017-Sep-17 18:00N 40°53' W 091°01'1 1.4
2017-Sep-17 17:31N 40°54' W 091°01'3 5.5
2017-Sep-17 17:00N 40°56' W 090°58'3 6.3
2017-Sep-17 16:31N 40°59' W 090°58'3 6.4
2017-Sep-17 16:00N 41°02' W 090°57'3 6.4
2017-Sep-17 15:30N 41°05' W 090°57'9 3.0
2017-Sep-17 12:29N 41°12' W 091°04'  
2017-Sep-10 16:03N 41°07' W 090°57'1 3.6
2017-Sep-10 15:53N 41°06' W 090°57'1 3.5
2017-Sep-10 15:29N 41°05' W 090°57'3 3.7
2017-Sep-10 14:45N 41°02' W 090°56'3 3.5
2017-Sep-10 14:01N 40°60' W 090°57'2 3.5
2017-Sep-10 13:30N 40°58' W 090°57'0 0.7
2017-Sep-10 13:01N 40°58' W 090°57'1 1.8
2017-Sep-10 12:31N 40°57' W 090°57'2 3.8
2017-Sep-10 12:00N 40°55' W 090°59'2 3.7
2017-Sep-10 11:30N 40°54' W 091°01'1 2.5
2017-Sep-10 11:00N 40°53' W 091°01'0 0.3
2017-Sep-10 10:30N 40°53' W 091°02'0 0.0
2017-Sep-10 10:01N 40°53' W 091°02'0 0.5
2017-Sep-10 09:31N 40°53' W 091°02'1 2.9
2017-Sep-10 09:01N 40°52' W 091°03'0 0.0
2017-Sep-10 08:30N 40°52' W 091°03'0 0.0
2017-Sep-10 08:00N 40°52' W 091°03'0 0.0
2017-Sep-10 07:31N 40°52' W 091°03'0 0.2
2017-Sep-10 07:00N 40°51' W 091°03'1 2.3
2017-Sep-10 06:30N 40°50' W 091°04'2 3.6
2017-Sep-10 06:00N 40°49' W 091°06'2 3.9
2017-Sep-10 05:30N 40°47' W 091°06'5 0.2
2017-Sep-09 00:35N 40°42' W 091°07'1 5.8
2017-Sep-09 00:24N 40°43' W 091°07'2 6.2
2017-Sep-08 23:59N 40°46' W 091°06'3 6.8
2017-Sep-08 23:30N 40°49' W 091°06'3 6.2
2017-Sep-08 23:00N 40°51' W 091°03'2 4.3
2017-Sep-08 22:30N 40°53' W 091°01'0 0.2
2017-Sep-08 21:59N 40°53' W 091°01'0 0.3
2017-Sep-08 21:31N 40°53' W 091°01'0 0.3
2017-Sep-08 21:00N 40°53' W 091°01'0 0.1
2017-Sep-08 20:31N 40°53' W 091°01'1 1.9
2017-Sep-08 20:00N 40°54' W 091°00'3 5.6
2017-Sep-08 19:30N 40°56' W 090°58'2 3.4
2017-Sep-08 19:00N 40°58' W 090°57'4 6.0
2017-Sep-08 18:20N 41°02' W 090°57'3 6.5
2017-Sep-08 17:51N 41°05' W 090°57'10 2.2
2017-Sep-08 13:34N 41°13' W 091°04'0 0.0
2017-Sep-08 13:29N 41°13' W 091°04'  

Dump ship's entire track history